Latest Weather Observations for Thredbo Top Station

IDN60801

Issued at 6:12 pm EST Saturday 20 July 2019 (issued every 10 minutes, with the page automatically refreshed every 10 minutes)

About weather observations | Map of weather stations | Latest weather observations for NSW | Other Formats
Station Details ID: 071032 Name: THREDBO AWS Lat: -36.49 Lon: 148.29 Height: 1957.0 m
Data from the previous 72 hours. | See also: Recent months at Thredbo Top Station
Date/Time
EST
Temp
°C
App
Temp
°C
Dew
Point
°C
Rel
Hum
%
Delta-T
°C
Wind Press
QNH
hPa
Press
MSL
hPa
Rain since
9am
mm
Dir  Spd
km/h
Gust
km/h
Spd
kts
Gust
kts
20/06:00pm 0.6 -12.4 -11.4 40 3.8 NNW 52 56 28 30 1016.7 1020.2 0.0
20/05:30pm 1.1 -11.6 -11.6 38 4.0 NNW 50 54 27 29 1016.7 1020.2 0.0
20/05:00pm 0.7 -11.9 -11.0 41 3.7 NNW 50 54 27 29 1016.7 1020.2 0.0
20/04:30pm 2.1 -10.9 -10.7 38 4.2 NNW 52 56 28 30 1016.8 1020.4 0.0
20/04:00pm 3.0 -10.3 -10.2 37 4.5 NW 54 57 29 31 1016.8 1020.4 0.0
20/03:30pm 3.0 -10.2 -8.0 44 4.0 NNW 54 61 29 33 1017.1 1020.6 0.0
20/03:00pm 3.2 -9.9 -7.9 44 4.1 NNW 54 57 29 31 1017.1 1020.6 0.0
20/02:30pm 3.3 -10.2 -7.8 44 4.1 NNW 56 61 30 33 1017.2 1020.7 0.0
20/02:00pm 3.0 -10.7 -8.3 43 4.1 NW 57 63 31 34 1017.2 1020.7 0.0
20/01:30pm 3.6 -11.3 -8.1 42 4.3 NW 63 69 34 37 1017.2 1020.7 0.0
20/01:00pm 3.5 -11.3 -7.6 44 4.1 NW 63 72 34 39 1017.9 1021.5 0.0
20/12:30pm 3.5 -10.6 -7.6 44 4.1 NW 59 69 32 37 1018.0 1021.6 0.0
20/12:00pm 4.0 -10.0 -6.8 45 3.9 NW 59 67 32 36 1018.8 1022.4 0.0
20/11:30am 2.3 -11.7 -7.3 49 3.5 NW 59 67 32 36 1019.4 1023.0 0.0
20/11:00am 0.8 -13.0 -8.7 49 3.2 NW 57 65 31 35 1019.7 1023.4 0.0
20/10:30am -0.3 -14.0 -10.0 48 3.1 NW 56 65 30 35 1020.1 1023.8 0.0
20/10:00am -2.8 -15.6 -13.6 43 2.9 NW 50 57 27 31 1020.4 1024.0 0.0
20/09:30am -3.4 -16.6 -13.3 46 2.6 NW 52 57 28 31 1020.5 1024.2 0.0
20/09:00am -3.6 -15.2 -13.2 47 2.5 NW 44 54 24 29 1021.0 1024.7 0.0
20/08:30am -3.7 -15.0 -11.6 54 2.1 NW 43 50 23 27 1021.1 1024.8 0.0
20/08:00am -3.6 -15.0 -10.0 61 1.8 NW 44 52 24 28 1020.8 1024.6 0.0
20/07:30am -3.7 -15.0 -8.9 67 1.5 NW 44 52 24 28 1020.8 1024.6 0.0
20/07:00am -4.1 -15.7 -7.7 76 1.0 NW 46 54 25 29 1020.6 1024.3 0.0
20/06:30am -4.2 -14.7 -6.5 84 0.6 NW 41 46 22 25 1020.7 1024.4 0.0
20/06:00am -4.5 -14.6 -5.7 91 0.2 NW 39 44 21 24 1020.5 1024.2 0.0
20/05:30am -5.0 -15.9 -5.7 95 0.0 NW 43 48 23 26 1020.2 1023.9 0.0
20/05:00am -4.8 -16.2 -5.2 97 -0.1 NW 46 54 25 29 1019.9 1023.5 0.0
20/04:30am -4.6 -14.6 -5.0 97 -0.1 NW 39 48 21 26 1020.1 1023.8 0.0
20/04:00am -4.8 -14.1 -5.2 97 -0.1 NW 35 43 19 23 1020.6 1024.3 0.0
20/03:30am -4.9 -13.2 -5.3 97 -0.1 NW 30 35 16 19 1021.1 1024.8 0.0
20/03:00am -4.9 -13.8 -5.3 97 -0.1 NW 33 37 18 20 1021.4 1025.2 0.0
20/02:30am -4.9 -14.9 -5.3 97 -0.1 NW 39 43 21 23 1021.1 1024.8 0.0
20/02:00am -4.9 -14.6 -5.3 97 -0.1 NW 37 41 20 22 1021.2 1024.9 0.0
20/01:30am -5.0 -15.4 -5.4 97 -0.1 NW 41 46 22 25 1021.1 1024.8 0.0
20/01:00am -5.2 -16.0 -5.6 97 -0.1 WNW 43 48 23 26 1021.0 1024.7 0.0
20/12:30am -5.5 -16.0 -6.2 95 0.0 WNW 41 48 22 26 1021.2 1024.9 0.0
20/12:00am -5.2 -15.7 -5.7 96 -0.1 NW 41 46 22 25 1021.3 1025.1 0.0
 
Date/Time
EST
Temp
°C
App
Temp
°C
Dew
Point
°C
Rel
Hum
%
Delta-T
°C
Wind Press
QNH
hPa
Press
MSL
hPa
Rain since
9am
mm
Dir  Spd
km/h
Gust
km/h
Spd
kts
Gust
kts
19/11:30pm -4.9 -13.8 -5.3 97 -0.1 WNW 33 39 18 21 1021.6 1025.3 0.0
19/11:00pm -5.1 -13.8 -5.5 97 -0.1 NW 32 35 17 19 1022.0 1025.8 0.0
19/10:30pm -5.4 -14.2 -5.8 97 -0.1 WNW 32 35 17 19 1022.3 1026.1 0.0
19/10:00pm -5.5 -13.5 -5.9 97 -0.1 WNW 28 32 15 17 1022.5 1026.3 0.0
19/09:30pm -5.5 -13.1 -5.9 97 -0.1 WNW 26 28 14 15 1022.3 1026.1 0.0
19/09:00pm -5.5 -13.1 -5.9 97 -0.1 WNW 26 30 14 16 1022.3 1026.1 0.0
19/08:30pm -5.3 -12.9 -5.7 97 -0.1 WNW 26 30 14 16 1022.2 1026.0 0.0
19/08:00pm -5.1 -13.1 -5.5 97 -0.1 WNW 28 32 15 17 1022.0 1025.8 0.0
19/07:30pm -5.1 -13.1 -5.5 97 -0.1 WNW 28 32 15 17 1021.7 1025.4 0.0
19/07:00pm -4.7 -12.3 -5.1 97 -0.1 W 26 30 14 16 1021.3 1025.1 0.0
19/06:30pm -4.7 -11.9 -5.1 97 -0.1 W 24 30 13 16 1021.2 1024.9 0.0
19/06:00pm -4.4 -11.5 -4.8 97 -0.1 W 24 28 13 15 1021.0 1024.7 0.0
19/05:30pm -4.6 -11.8 -5.0 97 -0.1 W 24 30 13 16 1020.6 1024.3 0.0
19/05:00pm -4.7 -11.9 -5.0 98 -0.1 W 24 32 13 17 1020.4 1024.0 0.0
19/04:30pm -4.2 -11.3 -4.5 98 -0.1 WNW 24 28 13 15 1020.5 1024.2 0.0
19/04:00pm -3.1 -10.5 -3.4 98 0.0 WNW 26 32 14 17 1020.2 1023.9 0.0
19/03:30pm -2.8 -10.5 -3.1 98 0.0 NW 28 35 15 19 1020.0 1023.7 0.0
19/03:00pm -3.0 -10.4 -3.3 98 0.0 WNW 26 32 14 17 1019.7 1023.4 0.0
19/02:30pm -2.9 -11.0 -3.2 98 0.0 WNW 30 33 16 18 1019.6 1023.3 0.0
19/02:00pm -2.8 -10.9 -3.1 98 0.0 WNW 30 33 16 18 1019.4 1023.0 0.0
19/01:30pm -2.5 -10.6 -2.8 98 0.0 WNW 30 37 16 20 1019.3 1022.9 0.0
19/01:00pm -1.6 -10.5 -1.9 98 0.0 WNW 35 41 19 22 1019.3 1022.9 0.0
19/12:30pm -1.7 -11.0 -2.0 98 0.0 WNW 37 43 20 23 1019.1 1022.8 0.0
19/12:00pm -1.6 -10.9 -1.9 98 0.0 WNW 37 46 20 25 1019.3 1022.9 0.0
19/11:30am -1.7 -11.0 -2.0 98 0.0 WNW 37 46 20 25 1019.5 1023.2 0.0
19/11:00am -1.9 -11.2 -2.2 98 0.0 WNW 37 46 20 25 1019.5 1023.2 0.0
19/10:30am -2.2 -11.9 -2.5 98 0.0 WNW 39 46 21 25 1019.4 1023.0 0.0
19/10:00am -2.3 -12.0 -2.6 98 0.0 WNW 39 48 21 26 1019.0 1022.6 0.0
19/09:30am -2.2 -12.9 -2.5 98 0.0 WNW 44 54 24 29 1018.8 1022.4 0.0
19/09:00am -2.0 -12.7 -2.3 98 0.0 NW 44 54 24 29 1018.3 1021.9 0.0
19/08:30am -1.8 -12.8 -2.1 98 0.0 WNW 46 59 25 32 1018.3 1021.9 0.0
19/08:00am -1.9 -14.1 -2.2 98 0.0 WNW 52 63 28 34 1017.7 1021.2 0.0
19/07:30am -2.1 -13.5 -2.4 98 0.0 WNW 48 69 26 37 1017.1 1020.6 0.0
19/07:29am -2.1 -13.5 -2.4 98 0.0 WNW 48 69 26 37 1017.0 1020.5 0.0
19/07:00am -1.8 -13.6 -2.1 98 0.0 WNW 50 67 27 36 1017.2 1020.7 0.0
19/06:30am -1.8 -13.6 -2.1 98 0.0 WNW 50 63 27 34 1016.8 1020.4 0.0
19/06:00am -1.8 -14.3 -2.1 98 0.0 WNW 54 67 29 36 1016.0 1019.5 0.0
19/05:38am -1.9 -12.9 -2.2 98 0.0 WNW 46 65 25 35 1016.4 1019.8 0.0
19/05:30am -1.9 -12.9 -2.2 98 0.0 WNW 46 56 25 30 1016.2 1019.7 0.0
19/05:00am -1.9 -12.9 -2.2 98 0.0 WNW 46 57 25 31 1015.9 1019.3 0.0
19/04:30am -2.0 -13.8 -2.3 98 0.0 NW 50 70 27 38 1015.7 1019.2 0.0
19/04:22am -2.1 -14.3 -2.4 98 0.0 NW 52 70 28 38 1015.4 1018.8 0.0
19/04:00am -2.5 -13.0 -2.8 98 0.0 WNW 43 56 23 30 1015.7 1019.2 0.0
19/03:30am -2.7 -13.3 -3.0 98 0.0 NW 43 56 23 30 1015.3 1018.7 0.0
19/03:02am -2.5 -13.6 -2.8 98 0.0 WNW 46 65 25 35 1015.6 1019.1 0.0
19/03:00am -2.5 -13.6 -2.8 98 0.0 WNW 46 61 25 33 1015.9 1019.3 0.0
19/02:30am -2.2 -12.9 -2.5 98 0.0 WNW 44 67 24 36 1015.7 1019.2 0.0
19/02:00am -2.6 -14.9 -2.9 98 0.0 NW 52 76 28 41 1015.4 1018.8 0.0
19/01:53am -2.8 -16.0 -3.1 98 0.0 NW 57 76 31 41 1014.5 1017.9 0.0
19/01:30am -3.6 -16.3 -3.9 98 -0.1 NW 54 70 29 38 1014.5 1017.9 0.0
19/01:15am -4.2 -17.4 -4.5 98 -0.1 NW 56 74 30 40 1014.8 1018.2 0.0
19/01:00am -4.6 -18.0 -4.9 98 -0.1 NW 57 70 31 38 1014.8 1018.2 0.0
19/12:31am -4.7 -17.9 -5.0 98 -0.1 WNW 56 76 30 41 1014.5 1017.9 0.0
19/12:30am -4.7 -17.9 -5.0 98 -0.1 WNW 56 70 30 38 1014.4 1017.8 0.0
19/12:21am -4.9 -17.4 -5.2 98 -0.1 WNW 52 70 28 38 1014.7 1018.1 0.0
19/12:00am -5.3 -17.9 -5.7 97 -0.1 WNW 52 65 28 35 1014.9 1018.3 0.0
 
Date/Time
EST
Temp
°C
App
Temp
°C
Dew
Point
°C
Rel
Hum
%
Delta-T
°C
Wind Press
QNH
hPa
Press
MSL
hPa
Rain since
9am
mm
Dir  Spd
km/h
Gust
km/h
Spd
kts
Gust
kts
18/11:30pm -5.6 -20.3 -6.0 97 -0.1 WNW 63 83 34 45 1014.5 1017.9 0.0
18/11:25pm -5.7 -19.2 -6.1 97 -0.1 WNW 57 78 31 42 1014.3 1017.7 0.0
18/11:00pm -5.3 -18.6 -5.7 97 -0.1 NW 56 65 30 35 1014.8 1018.2 0.0
18/10:30pm -5.1 -17.6 -5.5 97 -0.1 NW 52 63 28 34 1014.5 1017.9 0.0
18/10:00pm -5.1 -19.3 -5.5 97 -0.1 NW 61 74 33 40 - - 0.0
18/09:30pm -5.1 -19.3 -5.5 97 -0.1 NW 61 72 33 39 - - 0.0
18/09:00pm -5.3 -19.2 -5.6 98 -0.1 NW 59 74 32 40 - - 0.0
18/08:32pm -5.6 -18.6 -6.0 97 -0.1 NW 54 74 29 40 - - 0.0
18/08:30pm -5.6 -18.2 -6.0 97 -0.1 NW 52 63 28 34 - - 0.0
18/08:00pm -5.6 -17.0 -6.0 97 -0.1 NW 46 61 25 33 1014.7 1018.1 0.0
18/07:30pm -5.0 -16.0 -5.4 97 -0.1 NW 44 54 24 29 1015.0 1018.4 0.0
18/07:00pm -4.5 -14.5 -4.8 98 -0.1 NW 39 48 21 26 1015.1 1018.6 0.0
18/06:30pm -4.2 -14.2 -4.5 98 -0.1 NW 39 50 21 27 1015.3 1018.7 0.0
18/06:00pm -4.1 -15.4 -4.4 98 -0.1 NW 46 59 25 32 1014.8 1018.2 0.0
18/05:30pm -4.4 -15.3 -4.7 98 -0.1 NW 44 52 24 28 1014.9 1018.3 0.0
18/05:00pm -3.9 -15.2 -4.2 98 -0.1 NW 46 56 25 30 1014.4 1017.8 0.0
18/04:30pm -3.6 -15.2 -3.9 98 -0.1 WNW 48 57 26 31 - - 0.0
18/04:00pm -3.3 -13.5 -3.6 98 0.0 WNW 41 52 22 28 - - 0.0
18/03:30pm -3.0 -12.1 -3.3 98 0.0 WNW 35 46 19 25 1014.3 1017.7 0.0
18/03:00pm -2.7 -12.9 -3.0 98 0.0 WNW 41 52 22 28 - - 0.0
18/02:30pm -2.5 -12.6 -2.8 98 0.0 WNW 41 50 22 27 - - 0.0
18/02:00pm -2.8 -11.5 -3.1 98 0.0 WNW 33 43 18 23 - - 0.0
18/01:30pm -3.5 -12.1 -3.8 98 -0.1 W 32 43 17 23 - - 0.0
18/01:00pm -3.8 -12.4 -4.1 98 -0.1 W 32 52 17 28 1014.3 1017.7 0.0
18/12:32pm -4.0 -12.8 -4.3 98 -0.1 WSW 33 54 18 29 1014.4 1017.8 0.0
18/12:30pm -4.1 -12.9 -4.4 98 -0.1 WSW 33 48 18 26 1014.5 1017.9 0.0
18/12:00pm -4.3 -14.3 -4.6 98 -0.1 WSW 39 59 21 32 1014.5 1017.9 0.0
18/11:30am -4.4 -14.4 -4.7 98 -0.1 WSW 39 57 21 31 1014.7 1018.1 0.0
18/11:03am -4.6 -15.4 -4.9 98 -0.1 WSW 43 61 23 33 1015.0 1018.4 0.0
18/11:00am -4.6 -15.6 -4.9 98 -0.1 WSW 44 61 24 33 1015.0 1018.4 0.0
18/10:30am -4.6 -14.6 -4.9 98 -0.1 WSW 39 57 21 31 1015.4 1018.8 0.0
18/10:00am -4.9 -13.8 -5.2 98 -0.1 WSW 33 56 18 30 1015.4 1018.8 0.0
18/09:58am -4.9 -13.8 -5.2 98 -0.1 WSW 33 56 18 30 1015.1 1018.6 0.0
18/09:30am -4.9 -14.2 -5.2 98 -0.1 WSW 35 46 19 25 1014.7 1018.1 0.0
18/09:01am -4.7 -13.0 -5.0 98 -0.1 WSW 30 48 16 26 1014.4 1017.8 0.0
18/09:00am -4.7 -13.4 -5.0 98 -0.1 WSW 32 48 17 26 1014.4 1017.8 1.8
18/08:44am -4.6 -12.5 -4.9 98 -0.1 WSW 28 46 15 25 1014.3 1017.7 1.8
18/08:30am -4.5 -12.4 -4.8 98 -0.1 WSW 28 43 15 23 - - 1.8
18/08:18am -4.3 -12.2 -4.6 98 -0.1 W 28 46 15 25 - - 1.8
18/08:00am -4.2 -12.8 -4.5 98 -0.1 WNW 32 41 17 22 - - 1.8
18/07:30am -3.9 -12.5 -4.2 98 -0.1 W 32 43 17 23 - - 1.8
18/07:00am -3.6 -12.4 -3.9 98 -0.1 WNW 33 46 18 25 - - 1.8
18/06:30am -3.3 -12.8 -3.6 98 0.0 WNW 37 44 20 24 - - 1.8
18/06:00am -2.9 -12.7 -3.2 98 0.0 NW 39 54 21 29 - - 1.8
18/05:30am -2.8 -12.6 -3.1 98 0.0 NW 39 50 21 27 - - 1.8
18/05:00am -2.7 -12.5 -3.0 98 0.0 NW 39 48 21 26 - - 1.8
18/04:30am -2.7 -11.7 -3.0 98 0.0 NW 35 46 19 25 - - 1.8
18/04:00am -2.5 -12.3 -2.8 98 0.0 NW 39 50 21 27 - - 1.8
18/03:43am -2.4 -11.4 -2.7 98 0.0 NW 35 54 19 29 - - 1.8
18/03:30am -2.4 -12.2 -2.7 98 0.0 NW 39 56 21 30 - - 1.8
18/03:00am -2.4 -12.5 -2.7 98 0.0 NW 41 56 22 30 - - 1.8
18/02:30am -2.3 -12.4 -2.6 98 0.0 NW 41 54 22 29 - - 1.8
18/02:00am -2.2 -12.7 -2.5 98 0.0 NW 43 54 23 29 - - 1.8
18/01:37am -2.0 -12.7 -2.3 98 0.0 NW 44 70 24 38 - - 1.8
18/01:30am -2.0 -12.5 -2.3 98 0.0 NW 43 50 23 27 - - 1.6
18/01:12am -2.0 -13.0 -2.3 98 0.0 NW 46 65 25 35 - - 1.6
18/01:00am -2.1 -13.1 -2.4 98 0.0 NW 46 59 25 32 - - 1.6
18/12:30am -2.0 -13.4 -2.3 98 0.0 NW 48 61 26 33 - - 1.6
18/12:22am -1.9 -12.0 -2.2 98 0.0 NW 41 61 22 33 - - 1.6
18/12:00am -1.9 -11.2 -2.2 98 0.0 WNW 37 48 20 26 - - 1.6
 
Date/Time
EST
Temp
°C
App
Temp
°C
Dew
Point
°C
Rel
Hum
%
Delta-T
°C
Wind Press
QNH
hPa
Press
MSL
hPa
Rain since
9am
mm
Dir  Spd
km/h
Gust
km/h
Spd
kts
Gust
kts
17/11:30pm -1.9 -11.6 -2.2 98 0.0 NW 39 46 21 25 - - 1.4
17/11:07pm -1.9 -12.0 -2.2 98 0.0 WNW 41 59 22 32 - - 1.4
17/11:00pm -1.9 -12.5 -2.2 98 0.0 WNW 44 59 24 32 - - 1.4
17/10:35pm -1.9 -12.9 -2.2 98 0.0 WNW 46 67 25 36 - - 1.4
17/10:30pm -1.9 -12.5 -2.2 98 0.0 WNW 44 59 24 32 - - 1.4
17/10:00pm -2.0 -12.7 -2.3 98 0.0 WNW 44 56 24 30 - - 1.4
17/09:44pm -1.9 -12.0 -2.2 98 0.0 WNW 41 59 22 32 - - 1.4
17/09:36pm -1.9 -7.8 -2.2 98 0.0 WNW 19 46 10 25 - - 1.4
17/09:30pm -1.9 -6.3 -2.2 98 0.0 WNW 11 15 6 8 - - 1.4
17/09:00pm -2.0 -7.1 -2.3 98 0.0 NW 15 19 8 10 - - 1.2
17/08:30pm -2.0 -6.0 -2.3 98 0.0 NW 9 17 5 9 - - 1.2
17/08:00pm -2.1 -5.5 -2.4 98 0.0 NW 6 7 3 4 - - 1.0
17/07:30pm -2.3 -5.8 -2.6 98 0.0 NW 6 7 3 4 - - 0.8
17/07:00pm -2.4 -6.1 -2.7 98 0.0 NW 7 9 4 5 - - 0.6
17/06:30pm -2.3 -5.8 -2.6 98 0.0 NW 6 7 3 4 - - 0.4

Other formats

Comma delimited format used in spreadsheet applications
http://www.bom.gov.au/fwo/IDN60801/IDN60801.95909.axf

JavaScript Object Notation format (JSON) in row-major order
http://www.bom.gov.au/fwo/IDN60801/IDN60801.95909.json

Data quality

Most of these data are generated automatically and are frequently updated. Quality checks on data are not normally performed. It is possible for incorrect values to appear. Refer to information at About Latest Weather Observations and please check the disclaimer before using these data.